sensor_id;sensor_type;location;lat;lon;timestamp;P1;durP1;ratioP1;P2;durP2;ratioP2
73672;SDS011;61972;19.480;-99.240;2023-05-10T00:01:14;8.57;;;5.05;;
73672;SDS011;61972;19.480;-99.240;2023-05-10T00:03:43;8.25;;;5.68;;
73672;SDS011;61972;19.480;-99.240;2023-05-10T00:06:18;7.82;;;5.35;;
73672;SDS011;61972;19.480;-99.240;2023-05-10T00:08:47;7.47;;;5.22;;
73672;SDS011;61972;19.480;-99.240;2023-05-10T00:11:36;8.87;;;5.33;;
73672;SDS011;61972;19.480;-99.240;2023-05-10T00:14:12;9.18;;;5.30;;
73672;SDS011;61972;19.480;-99.240;2023-05-10T00:16:43;7.57;;;5.32;;
73672;SDS011;61972;19.480;-99.240;2023-05-10T00:19:29;7.95;;;5.57;;
73672;SDS011;61972;19.480;-99.240;2023-05-10T00:22:27;7.95;;;5.75;;
73672;SDS011;61972;19.480;-99.240;2023-05-10T00:27:56;7.50;;;5.70;;
73672;SDS011;61972;19.480;-99.240;2023-05-10T00:30:27;8.05;;;6.20;;
73672;SDS011;61972;19.480;-99.240;2023-05-10T00:33:01;8.77;;;5.72;;
73672;SDS011;61972;19.480;-99.240;2023-05-10T01:17:10;9.50;;;6.50;;
73672;SDS011;61972;19.480;-99.240;2023-05-10T01:20:07;9.70;;;7.10;;
73672;SDS011;61972;19.480;-99.240;2023-05-10T01:38:19;12.10;;;7.25;;
73672;SDS011;61972;19.480;-99.240;2023-05-10T01:41:18;10.80;;;7.75;;
73672;SDS011;61972;19.480;-99.240;2023-05-10T01:43:57;8.90;;;6.93;;
73672;SDS011;61972;19.480;-99.240;2023-05-10T01:46:33;15.70;;;7.82;;
73672;SDS011;61972;19.480;-99.240;2023-05-10T01:49:13;12.45;;;7.43;;
73672;SDS011;61972;19.480;-99.240;2023-05-10T01:51:50;12.25;;;7.63;;
73672;SDS011;61972;19.480;-99.240;2023-05-10T01:54:34;11.45;;;7.55;;
73672;SDS011;61972;19.480;-99.240;2023-05-10T01:57:05;10.37;;;7.40;;
73672;SDS011;61972;19.480;-99.240;2023-05-10T02:45:12;12.63;;;8.20;;
73672;SDS011;61972;19.480;-99.240;2023-05-10T02:59:40;14.23;;;8.60;;
73672;SDS011;61972;19.480;-99.240;2023-05-10T03:02:27;14.73;;;9.02;;
73672;SDS011;61972;19.480;-99.240;2023-05-10T03:04:53;14.15;;;9.75;;
73672;SDS011;61972;19.480;-99.240;2023-05-10T03:07:32;14.57;;;9.35;;
73672;SDS011;61972;19.480;-99.240;2023-05-10T03:09:59;17.13;;;8.93;;
73672;SDS011;61972;19.480;-99.240;2023-05-10T03:15:47;14.13;;;8.85;;
73672;SDS011;61972;19.480;-99.240;2023-05-10T03:18:28;13.05;;;9.15;;
73672;SDS011;61972;19.480;-99.240;2023-05-10T03:21:13;13.75;;;8.70;;
73672;SDS011;61972;19.480;-99.240;2023-05-10T03:23:47;13.10;;;9.57;;
73672;SDS011;61972;19.480;-99.240;2023-05-10T03:26:20;15.53;;;8.93;;
73672;SDS011;61972;19.480;-99.240;2023-05-10T03:28:50;15.45;;;9.32;;
73672;SDS011;61972;19.480;-99.240;2023-05-10T03:31:18;11.20;;;8.75;;
73672;SDS011;61972;19.480;-99.240;2023-05-10T03:33:45;16.33;;;9.88;;
73672;SDS011;61972;19.480;-99.240;2023-05-10T03:36:15;15.43;;;9.50;;
73672;SDS011;61972;19.480;-99.240;2023-05-10T03:38:42;15.10;;;9.10;;
73672;SDS011;61972;19.480;-99.240;2023-05-10T03:41:11;14.82;;;9.70;;
73672;SDS011;61972;19.480;-99.240;2023-05-10T03:43:37;11.98;;;9.13;;
73672;SDS011;61972;19.480;-99.240;2023-05-10T03:46:04;14.35;;;9.27;;
73672;SDS011;61972;19.480;-99.240;2023-05-10T03:51:11;14.47;;;8.97;;
73672;SDS011;61972;19.480;-99.240;2023-05-10T03:53:37;12.82;;;9.50;;
73672;SDS011;61972;19.480;-99.240;2023-05-10T03:56:04;16.63;;;9.55;;
73672;SDS011;61972;19.480;-99.240;2023-05-10T03:58:30;14.93;;;10.45;;
73672;SDS011;61972;19.480;-99.240;2023-05-10T04:00:56;14.70;;;10.25;;
73672;SDS011;61972;19.480;-99.240;2023-05-10T04:03:22;12.87;;;9.40;;
73672;SDS011;61972;19.480;-99.240;2023-05-10T04:05:48;13.80;;;10.10;;
73672;SDS011;61972;19.480;-99.240;2023-05-10T04:08:23;13.88;;;9.95;;
73672;SDS011;61972;19.480;-99.240;2023-05-10T04:10:49;13.77;;;9.75;;
73672;SDS011;61972;19.480;-99.240;2023-05-10T04:13:15;14.90;;;10.10;;
73672;SDS011;61972;19.480;-99.240;2023-05-10T04:15:42;13.93;;;9.77;;
73672;SDS011;61972;19.480;-99.240;2023-05-10T04:18:08;15.60;;;10.10;;
73672;SDS011;61972;19.480;-99.240;2023-05-10T04:20:35;15.05;;;9.15;;
73672;SDS011;61972;19.480;-99.240;2023-05-10T04:23:01;15.32;;;9.88;;
73672;SDS011;61972;19.480;-99.240;2023-05-10T04:25:28;13.70;;;10.02;;
73672;SDS011;61972;19.480;-99.240;2023-05-10T04:27:57;14.50;;;9.50;;
73672;SDS011;61972;19.480;-99.240;2023-05-10T04:30:23;12.23;;;9.52;;
73672;SDS011;61972;19.480;-99.240;2023-05-10T04:32:49;15.20;;;10.20;;
73672;SDS011;61972;19.480;-99.240;2023-05-10T04:35:16;13.55;;;9.30;;
73672;SDS011;61972;19.480;-99.240;2023-05-10T04:37:42;13.77;;;9.82;;
73672;SDS011;61972;19.480;-99.240;2023-05-10T04:40:08;13.53;;;9.83;;
73672;SDS011;61972;19.480;-99.240;2023-05-10T04:42:35;13.88;;;9.93;;
73672;SDS011;61972;19.480;-99.240;2023-05-10T04:45:01;13.60;;;10.05;;
73672;SDS011;61972;19.480;-99.240;2023-05-10T04:47:28;15.27;;;10.48;;
73672;SDS011;61972;19.480;-99.240;2023-05-10T04:49:57;16.63;;;10.45;;
73672;SDS011;61972;19.480;-99.240;2023-05-10T04:52:24;14.70;;;9.73;;
73672;SDS011;61972;19.480;-99.240;2023-05-10T04:54:50;13.75;;;9.88;;
73672;SDS011;61972;19.480;-99.240;2023-05-10T04:57:16;14.10;;;10.57;;
73672;SDS011;61972;19.480;-99.240;2023-05-10T04:59:42;17.83;;;10.20;;
73672;SDS011;61972;19.480;-99.240;2023-05-10T05:02:09;13.93;;;9.55;;
73672;SDS011;61972;19.480;-99.240;2023-05-10T05:04:38;15.10;;;9.73;;
73672;SDS011;61972;19.480;-99.240;2023-05-10T05:07:04;17.65;;;10.13;;
73672;SDS011;61972;19.480;-99.240;2023-05-10T05:09:33;14.05;;;10.55;;
73672;SDS011;61972;19.480;-99.240;2023-05-10T05:12:08;14.77;;;10.10;;
73672;SDS011;61972;19.480;-99.240;2023-05-10T05:14:39;14.68;;;10.23;;
73672;SDS011;61972;19.480;-99.240;2023-05-10T05:17:06;13.73;;;10.20;;
73672;SDS011;61972;19.480;-99.240;2023-05-10T05:19:33;13.18;;;9.95;;
73672;SDS011;61972;19.480;-99.240;2023-05-10T05:22:00;15.93;;;10.48;;
73672;SDS011;61972;19.480;-99.240;2023-05-10T05:24:26;15.30;;;9.93;;
73672;SDS011;61972;19.480;-99.240;2023-05-10T05:26:52;15.63;;;10.73;;
73672;SDS011;61972;19.480;-99.240;2023-05-10T05:29:24;14.57;;;10.77;;
73672;SDS011;61972;19.480;-99.240;2023-05-10T05:31:51;13.52;;;10.35;;
73672;SDS011;61972;19.480;-99.240;2023-05-10T05:34:17;14.68;;;10.63;;
73672;SDS011;61972;19.480;-99.240;2023-05-10T05:36:43;13.90;;;10.15;;
73672;SDS011;61972;19.480;-99.240;2023-05-10T05:42:03;14.97;;;10.80;;
73672;SDS011;61972;19.480;-99.240;2023-05-10T05:44:32;14.70;;;10.38;;
73672;SDS011;61972;19.480;-99.240;2023-05-10T05:47:03;14.38;;;10.23;;
73672;SDS011;61972;19.480;-99.240;2023-05-10T05:49:33;15.38;;;10.70;;
73672;SDS011;61972;19.480;-99.240;2023-05-10T05:52:09;14.18;;;10.10;;
73672;SDS011;61972;19.480;-99.240;2023-05-10T05:54:40;15.80;;;11.13;;
73672;SDS011;61972;19.480;-99.240;2023-05-10T05:57:19;14.55;;;11.30;;
73672;SDS011;61972;19.480;-99.240;2023-05-10T06:00:08;14.25;;;10.93;;
73672;SDS011;61972;19.480;-99.240;2023-05-10T06:02:34;15.13;;;10.82;;
73672;SDS011;61972;19.480;-99.240;2023-05-10T06:05:01;14.77;;;10.75;;
73672;SDS011;61972;19.480;-99.240;2023-05-10T06:07:28;13.43;;;10.47;;
73672;SDS011;61972;19.480;-99.240;2023-05-10T06:10:07;16.45;;;11.10;;
73672;SDS011;61972;19.480;-99.240;2023-05-10T06:12:34;14.13;;;11.20;;
73672;SDS011;61972;19.480;-99.240;2023-05-10T06:15:03;16.63;;;11.27;;
73672;SDS011;61972;19.480;-99.240;2023-05-10T06:17:34;16.55;;;11.00;;
73672;SDS011;61972;19.480;-99.240;2023-05-10T06:20:03;14.20;;;10.70;;
73672;SDS011;61972;19.480;-99.240;2023-05-10T06:22:33;15.98;;;10.90;;
73672;SDS011;61972;19.480;-99.240;2023-05-10T06:25:02;15.10;;;10.40;;
73672;SDS011;61972;19.480;-99.240;2023-05-10T06:27:28;15.07;;;10.18;;
73672;SDS011;61972;19.480;-99.240;2023-05-10T06:30:01;18.65;;;10.98;;
73672;SDS011;61972;19.480;-99.240;2023-05-10T06:32:52;15.33;;;10.47;;
73672;SDS011;61972;19.480;-99.240;2023-05-10T06:35:21;15.57;;;11.07;;
73672;SDS011;61972;19.480;-99.240;2023-05-10T06:37:48;15.13;;;10.93;;
73672;SDS011;61972;19.480;-99.240;2023-05-10T06:40:20;16.30;;;10.93;;
73672;SDS011;61972;19.480;-99.240;2023-05-10T06:42:47;16.85;;;11.25;;
73672;SDS011;61972;19.480;-99.240;2023-05-10T06:45:16;18.20;;;11.30;;
73672;SDS011;61972;19.480;-99.240;2023-05-10T06:47:48;14.88;;;11.27;;
73672;SDS011;61972;19.480;-99.240;2023-05-10T06:50:14;14.68;;;11.13;;
73672;SDS011;61972;19.480;-99.240;2023-05-10T06:52:43;15.63;;;10.82;;
73672;SDS011;61972;19.480;-99.240;2023-05-10T06:55:09;17.35;;;11.38;;
73672;SDS011;61972;19.480;-99.240;2023-05-10T06:57:39;14.27;;;10.70;;
73672;SDS011;61972;19.480;-99.240;2023-05-10T07:00:05;14.70;;;10.43;;
73672;SDS011;61972;19.480;-99.240;2023-05-10T07:02:35;15.25;;;11.07;;
73672;SDS011;61972;19.480;-99.240;2023-05-10T07:05:08;14.98;;;11.38;;
73672;SDS011;61972;19.480;-99.240;2023-05-10T07:07:52;15.25;;;10.80;;
73672;SDS011;61972;19.480;-99.240;2023-05-10T07:13:40;14.95;;;10.32;;
73672;SDS011;61972;19.480;-99.240;2023-05-10T07:16:19;14.30;;;11.10;;
73672;SDS011;61972;19.480;-99.240;2023-05-10T07:22:00;14.20;;;10.60;;
73672;SDS011;61972;19.480;-99.240;2023-05-10T07:24:26;15.87;;;10.73;;
73672;SDS011;61972;19.480;-99.240;2023-05-10T07:26:53;15.88;;;10.95;;
73672;SDS011;61972;19.480;-99.240;2023-05-10T07:29:19;17.67;;;10.98;;
73672;SDS011;61972;19.480;-99.240;2023-05-10T07:31:45;15.27;;;10.65;;
73672;SDS011;61972;19.480;-99.240;2023-05-10T07:34:12;16.05;;;11.15;;
73672;SDS011;61972;19.480;-99.240;2023-05-10T07:36:38;17.20;;;10.53;;
73672;SDS011;61972;19.480;-99.240;2023-05-10T07:39:04;15.23;;;10.68;;
73672;SDS011;61972;19.480;-99.240;2023-05-10T07:41:34;14.05;;;10.48;;
73672;SDS011;61972;19.480;-99.240;2023-05-10T07:44:09;17.13;;;10.98;;
73672;SDS011;61972;19.480;-99.240;2023-05-10T07:46:41;15.55;;;10.23;;
73672;SDS011;61972;19.480;-99.240;2023-05-10T07:49:10;12.50;;;9.90;;
73672;SDS011;61972;19.480;-99.240;2023-05-10T07:51:40;15.00;;;9.68;;
73672;SDS011;61972;19.480;-99.240;2023-05-10T07:54:07;14.40;;;9.82;;
73672;SDS011;61972;19.480;-99.240;2023-05-10T07:56:59;12.80;;;9.60;;
73672;SDS011;61972;19.480;-99.240;2023-05-10T07:59:36;12.43;;;9.88;;
73672;SDS011;61972;19.480;-99.240;2023-05-10T08:02:15;12.30;;;9.40;;
73672;SDS011;61972;19.480;-99.240;2023-05-10T08:04:41;12.15;;;8.80;;
73672;SDS011;61972;19.480;-99.240;2023-05-10T08:07:08;13.70;;;9.60;;
73672;SDS011;61972;19.480;-99.240;2023-05-10T08:09:34;13.45;;;9.18;;
73672;SDS011;61972;19.480;-99.240;2023-05-10T08:12:00;12.32;;;9.40;;
73672;SDS011;61972;19.480;-99.240;2023-05-10T08:14:27;10.97;;;9.00;;
73672;SDS011;61972;19.480;-99.240;2023-05-10T08:16:54;13.27;;;9.23;;
73672;SDS011;61972;19.480;-99.240;2023-05-10T08:19:20;13.63;;;9.43;;
73672;SDS011;61972;19.480;-99.240;2023-05-10T08:21:48;10.52;;;8.55;;
73672;SDS011;61972;19.480;-99.240;2023-05-10T08:24:14;12.00;;;9.40;;
73672;SDS011;61972;19.480;-99.240;2023-05-10T08:26:40;14.13;;;8.97;;
73672;SDS011;61972;19.480;-99.240;2023-05-10T08:29:06;11.98;;;9.15;;
73672;SDS011;61972;19.480;-99.240;2023-05-10T08:31:33;11.95;;;8.38;;
73672;SDS011;61972;19.480;-99.240;2023-05-10T08:33:59;11.65;;;8.85;;
73672;SDS011;61972;19.480;-99.240;2023-05-10T08:36:25;12.50;;;8.85;;
73672;SDS011;61972;19.480;-99.240;2023-05-10T08:38:53;10.87;;;8.73;;
73672;SDS011;61972;19.480;-99.240;2023-05-10T08:41:20;12.65;;;8.85;;
73672;SDS011;61972;19.480;-99.240;2023-05-10T08:43:49;11.35;;;8.50;;
73672;SDS011;61972;19.480;-99.240;2023-05-10T08:46:17;11.75;;;9.13;;
73672;SDS011;61972;19.480;-99.240;2023-05-10T08:48:44;14.18;;;8.95;;
73672;SDS011;61972;19.480;-99.240;2023-05-10T08:51:18;12.53;;;8.33;;
73672;SDS011;61972;19.480;-99.240;2023-05-10T08:53:47;11.02;;;8.52;;
73672;SDS011;61972;19.480;-99.240;2023-05-10T08:56:13;11.25;;;8.45;;
73672;SDS011;61972;19.480;-99.240;2023-05-10T08:58:43;11.45;;;8.65;;
73672;SDS011;61972;19.480;-99.240;2023-05-10T09:01:09;11.10;;;8.40;;
73672;SDS011;61972;19.480;-99.240;2023-05-10T09:03:38;11.33;;;8.37;;
73672;SDS011;61972;19.480;-99.240;2023-05-10T09:06:04;11.45;;;9.00;;
73672;SDS011;61972;19.480;-99.240;2023-05-10T09:08:30;9.70;;;7.80;;
73672;SDS011;61972;19.480;-99.240;2023-05-10T09:10:57;10.85;;;8.05;;
73672;SDS011;61972;19.480;-99.240;2023-05-10T09:13:23;11.57;;;8.38;;
73672;SDS011;61972;19.480;-99.240;2023-05-10T09:15:51;11.63;;;8.10;;
73672;SDS011;61972;19.480;-99.240;2023-05-10T09:18:18;10.95;;;7.80;;
73672;SDS011;61972;19.480;-99.240;2023-05-10T09:20:44;10.90;;;8.18;;
73672;SDS011;61972;19.480;-99.240;2023-05-10T09:23:10;9.38;;;7.28;;
73672;SDS011;61972;19.480;-99.240;2023-05-10T09:25:37;10.68;;;7.97;;
73672;SDS011;61972;19.480;-99.240;2023-05-10T09:28:06;9.93;;;7.37;;
73672;SDS011;61972;19.480;-99.240;2023-05-10T09:30:33;10.48;;;7.82;;
73672;SDS011;61972;19.480;-99.240;2023-05-10T09:33:00;9.35;;;7.50;;
73672;SDS011;61972;19.480;-99.240;2023-05-10T09:35:28;13.00;;;7.85;;
73672;SDS011;61972;19.480;-99.240;2023-05-10T09:37:57;10.25;;;8.20;;
73672;SDS011;61972;19.480;-99.240;2023-05-10T09:40:26;11.63;;;7.70;;
73672;SDS011;61972;19.480;-99.240;2023-05-10T09:42:57;11.35;;;7.85;;
73672;SDS011;61972;19.480;-99.240;2023-05-10T09:45:25;10.40;;;7.60;;
73672;SDS011;61972;19.480;-99.240;2023-05-10T09:47:55;9.77;;;7.43;;
73672;SDS011;61972;19.480;-99.240;2023-05-10T09:50:22;10.00;;;7.57;;
73672;SDS011;61972;19.480;-99.240;2023-05-10T09:52:50;11.20;;;7.83;;
73672;SDS011;61972;19.480;-99.240;2023-05-10T09:55:22;9.60;;;7.40;;
73672;SDS011;61972;19.480;-99.240;2023-05-10T09:57:49;10.52;;;7.97;;
73672;SDS011;61972;19.480;-99.240;2023-05-10T10:00:25;9.95;;;7.57;;
73672;SDS011;61972;19.480;-99.240;2023-05-10T10:02:56;9.18;;;7.18;;
73672;SDS011;61972;19.480;-99.240;2023-05-10T10:05:30;8.87;;;7.10;;
73672;SDS011;61972;19.480;-99.240;2023-05-10T10:07:58;8.63;;;6.88;;
73672;SDS011;61972;19.480;-99.240;2023-05-10T10:10:25;9.48;;;7.28;;
73672;SDS011;61972;19.480;-99.240;2023-05-10T10:12:52;9.35;;;6.88;;
73672;SDS011;61972;19.480;-99.240;2023-05-10T10:15:22;9.63;;;7.47;;
73672;SDS011;61972;19.480;-99.240;2023-05-10T10:17:49;9.83;;;7.70;;
73672;SDS011;61972;19.480;-99.240;2023-05-10T10:20:17;10.10;;;7.57;;
73672;SDS011;61972;19.480;-99.240;2023-05-10T10:22:44;10.13;;;7.40;;
73672;SDS011;61972;19.480;-99.240;2023-05-10T10:25:12;9.30;;;6.95;;
73672;SDS011;61972;19.480;-99.240;2023-05-10T10:30:23;9.93;;;7.07;;
73672;SDS011;61972;19.480;-99.240;2023-05-10T10:33:18;9.48;;;7.35;;
73672;SDS011;61972;19.480;-99.240;2023-05-10T10:35:54;8.95;;;7.00;;
73672;SDS011;61972;19.480;-99.240;2023-05-10T10:38:23;8.85;;;7.13;;
73672;SDS011;61972;19.480;-99.240;2023-05-10T10:41:01;9.55;;;7.15;;
73672;SDS011;61972;19.480;-99.240;2023-05-10T10:43:28;8.90;;;6.97;;
73672;SDS011;61972;19.480;-99.240;2023-05-10T10:46:12;8.48;;;6.50;;
73672;SDS011;61972;19.480;-99.240;2023-05-10T10:49:08;9.23;;;7.32;;
73672;SDS011;61972;19.480;-99.240;2023-05-10T10:51:38;9.18;;;6.90;;
73672;SDS011;61972;19.480;-99.240;2023-05-10T10:54:20;9.05;;;7.10;;
73672;SDS011;61972;19.480;-99.240;2023-05-10T10:57:12;8.90;;;6.63;;
73672;SDS011;61972;19.480;-99.240;2023-05-10T10:59:43;9.65;;;6.85;;
73672;SDS011;61972;19.480;-99.240;2023-05-10T11:02:20;8.77;;;6.60;;
73672;SDS011;61972;19.480;-99.240;2023-05-10T11:05:08;9.70;;;6.72;;
73672;SDS011;61972;19.480;-99.240;2023-05-10T11:07:56;8.75;;;6.57;;
73672;SDS011;61972;19.480;-99.240;2023-05-10T11:10:24;8.73;;;6.63;;
73672;SDS011;61972;19.480;-99.240;2023-05-10T11:12:52;8.32;;;6.72;;
73672;SDS011;61972;19.480;-99.240;2023-05-10T11:15:19;8.75;;;6.50;;
73672;SDS011;61972;19.480;-99.240;2023-05-10T11:17:47;9.13;;;6.57;;
73672;SDS011;61972;19.480;-99.240;2023-05-10T11:20:17;8.77;;;6.38;;
73672;SDS011;61972;19.480;-99.240;2023-05-10T11:22:51;8.10;;;6.37;;
73672;SDS011;61972;19.480;-99.240;2023-05-10T11:25:19;8.68;;;6.60;;
73672;SDS011;61972;19.480;-99.240;2023-05-10T11:27:47;8.38;;;6.57;;
73672;SDS011;61972;19.480;-99.240;2023-05-10T11:30:14;8.40;;;6.18;;
73672;SDS011;61972;19.480;-99.240;2023-05-10T11:32:40;8.55;;;6.38;;
73672;SDS011;61972;19.480;-99.240;2023-05-10T11:35:10;10.27;;;6.73;;
73672;SDS011;61972;19.480;-99.240;2023-05-10T11:37:38;8.52;;;6.47;;
73672;SDS011;61972;19.480;-99.240;2023-05-10T11:40:09;8.40;;;6.63;;
73672;SDS011;61972;19.480;-99.240;2023-05-10T11:42:39;8.43;;;6.63;;
73672;SDS011;61972;19.480;-99.240;2023-05-10T11:45:05;9.05;;;6.60;;
73672;SDS011;61972;19.480;-99.240;2023-05-10T11:47:32;8.40;;;6.10;;
73672;SDS011;61972;19.480;-99.240;2023-05-10T11:50:00;8.15;;;6.30;;
73672;SDS011;61972;19.480;-99.240;2023-05-10T11:52:27;8.50;;;6.47;;
73672;SDS011;61972;19.480;-99.240;2023-05-10T11:54:54;8.48;;;6.47;;
73672;SDS011;61972;19.480;-99.240;2023-05-10T11:57:21;7.95;;;6.15;;
73672;SDS011;61972;19.480;-99.240;2023-05-10T11:59:58;8.77;;;6.50;;
73672;SDS011;61972;19.480;-99.240;2023-05-10T12:02:24;7.72;;;6.25;;
73672;SDS011;61972;19.480;-99.240;2023-05-10T12:04:51;7.95;;;6.50;;
73672;SDS011;61972;19.480;-99.240;2023-05-10T12:07:17;8.35;;;6.47;;
73672;SDS011;61972;19.480;-99.240;2023-05-10T12:09:44;8.02;;;6.07;;
73672;SDS011;61972;19.480;-99.240;2023-05-10T12:12:10;7.37;;;5.73;;
73672;SDS011;61972;19.480;-99.240;2023-05-10T12:14:42;7.93;;;6.00;;
73672;SDS011;61972;19.480;-99.240;2023-05-10T12:17:11;8.45;;;6.30;;
73672;SDS011;61972;19.480;-99.240;2023-05-10T12:19:38;7.82;;;6.00;;
73672;SDS011;61972;19.480;-99.240;2023-05-10T12:22:05;7.47;;;5.75;;
73672;SDS011;61972;19.480;-99.240;2023-05-10T12:24:34;7.20;;;5.47;;
73672;SDS011;61972;19.480;-99.240;2023-05-10T12:27:04;8.00;;;5.65;;
73672;SDS011;61972;19.480;-99.240;2023-05-10T12:29:33;7.75;;;5.82;;
73672;SDS011;61972;19.480;-99.240;2023-05-10T12:31:59;7.75;;;5.68;;
73672;SDS011;61972;19.480;-99.240;2023-05-10T12:34:32;7.72;;;5.93;;
73672;SDS011;61972;19.480;-99.240;2023-05-10T12:37:00;8.97;;;5.83;;
73672;SDS011;61972;19.480;-99.240;2023-05-10T12:39:40;9.50;;;5.68;;
73672;SDS011;61972;19.480;-99.240;2023-05-10T12:42:07;7.32;;;5.60;;
73672;SDS011;61972;19.480;-99.240;2023-05-10T12:44:34;8.13;;;5.85;;
73672;SDS011;61972;19.480;-99.240;2023-05-10T12:47:00;7.72;;;5.78;;
73672;SDS011;61972;19.480;-99.240;2023-05-10T12:49:26;7.20;;;5.63;;
73672;SDS011;61972;19.480;-99.240;2023-05-10T12:51:52;8.73;;;6.05;;
73672;SDS011;61972;19.480;-99.240;2023-05-10T12:54:18;8.27;;;6.00;;
73672;SDS011;61972;19.480;-99.240;2023-05-10T12:56:44;7.63;;;5.45;;
73672;SDS011;61972;19.480;-99.240;2023-05-10T12:59:11;7.35;;;5.75;;
73672;SDS011;61972;19.480;-99.240;2023-05-10T13:01:37;7.90;;;5.73;;
73672;SDS011;61972;19.480;-99.240;2023-05-10T13:04:03;7.75;;;5.63;;
73672;SDS011;61972;19.480;-99.240;2023-05-10T13:06:29;7.78;;;5.65;;
73672;SDS011;61972;19.480;-99.240;2023-05-10T13:08:56;7.28;;;5.40;;
73672;SDS011;61972;19.480;-99.240;2023-05-10T13:11:22;7.38;;;5.57;;
73672;SDS011;61972;19.480;-99.240;2023-05-10T13:13:49;8.67;;;5.77;;
73672;SDS011;61972;19.480;-99.240;2023-05-10T13:16:15;7.47;;;4.97;;
73672;SDS011;61972;19.480;-99.240;2023-05-10T13:18:41;7.70;;;5.78;;
73672;SDS011;61972;19.480;-99.240;2023-05-10T13:21:07;7.22;;;5.40;;
73672;SDS011;61972;19.480;-99.240;2023-05-10T13:23:34;8.15;;;5.60;;
73672;SDS011;61972;19.480;-99.240;2023-05-10T13:26:00;8.57;;;5.43;;
73672;SDS011;61972;19.480;-99.240;2023-05-10T13:28:26;8.07;;;5.60;;
73672;SDS011;61972;19.480;-99.240;2023-05-10T13:30:52;6.72;;;5.47;;
73672;SDS011;61972;19.480;-99.240;2023-05-10T13:33:21;7.18;;;5.45;;
73672;SDS011;61972;19.480;-99.240;2023-05-10T13:35:47;7.18;;;5.55;;
73672;SDS011;61972;19.480;-99.240;2023-05-10T13:38:13;7.30;;;5.20;;
73672;SDS011;61972;19.480;-99.240;2023-05-10T13:40:41;7.30;;;5.40;;
73672;SDS011;61972;19.480;-99.240;2023-05-10T13:43:08;7.25;;;5.50;;
73672;SDS011;61972;19.480;-99.240;2023-05-10T13:45:34;8.40;;;5.60;;
73672;SDS011;61972;19.480;-99.240;2023-05-10T13:48:01;7.55;;;5.47;;
73672;SDS011;61972;19.480;-99.240;2023-05-10T13:50:27;6.77;;;5.03;;
73672;SDS011;61972;19.480;-99.240;2023-05-10T13:52:53;7.85;;;5.50;;
73672;SDS011;61972;19.480;-99.240;2023-05-10T13:55:20;6.75;;;4.95;;
73672;SDS011;61972;19.480;-99.240;2023-05-10T13:57:46;6.68;;;4.95;;
73672;SDS011;61972;19.480;-99.240;2023-05-10T14:00:12;7.00;;;5.25;;
73672;SDS011;61972;19.480;-99.240;2023-05-10T14:02:39;8.50;;;5.37;;
73672;SDS011;61972;19.480;-99.240;2023-05-10T14:05:05;6.88;;;5.00;;
73672;SDS011;61972;19.480;-99.240;2023-05-10T14:07:32;7.47;;;5.07;;
73672;SDS011;61972;19.480;-99.240;2023-05-10T14:09:58;6.93;;;5.07;;
73672;SDS011;61972;19.480;-99.240;2023-05-10T14:12:24;8.05;;;5.45;;
73672;SDS011;61972;19.480;-99.240;2023-05-10T14:14:54;7.33;;;5.53;;
73672;SDS011;61972;19.480;-99.240;2023-05-10T14:17:20;6.82;;;5.00;;
73672;SDS011;61972;19.480;-99.240;2023-05-10T14:19:47;6.55;;;5.00;;
73672;SDS011;61972;19.480;-99.240;2023-05-10T14:22:22;6.95;;;4.97;;
73672;SDS011;61972;19.480;-99.240;2023-05-10T14:24:49;6.32;;;4.70;;
73672;SDS011;61972;19.480;-99.240;2023-05-10T14:27:15;6.83;;;5.20;;
73672;SDS011;61972;19.480;-99.240;2023-05-10T14:29:42;6.57;;;4.88;;
73672;SDS011;61972;19.480;-99.240;2023-05-10T14:32:08;6.90;;;5.18;;
73672;SDS011;61972;19.480;-99.240;2023-05-10T14:34:34;6.60;;;4.88;;
73672;SDS011;61972;19.480;-99.240;2023-05-10T14:37:00;6.40;;;4.60;;
73672;SDS011;61972;19.480;-99.240;2023-05-10T14:39:26;7.00;;;4.43;;
73672;SDS011;61972;19.480;-99.240;2023-05-10T14:41:54;6.90;;;4.93;;
73672;SDS011;61972;19.480;-99.240;2023-05-10T14:44:21;6.35;;;4.80;;
73672;SDS011;61972;19.480;-99.240;2023-05-10T14:46:47;6.97;;;4.65;;
73672;SDS011;61972;19.480;-99.240;2023-05-10T14:49:14;6.38;;;4.80;;
73672;SDS011;61972;19.480;-99.240;2023-05-10T14:51:41;6.30;;;4.50;;
73672;SDS011;61972;19.480;-99.240;2023-05-10T14:54:07;6.18;;;4.78;;
73672;SDS011;61972;19.480;-99.240;2023-05-10T14:56:33;6.82;;;5.10;;
73672;SDS011;61972;19.480;-99.240;2023-05-10T14:58:59;6.50;;;4.50;;
73672;SDS011;61972;19.480;-99.240;2023-05-10T15:01:25;6.32;;;4.50;;
73672;SDS011;61972;19.480;-99.240;2023-05-10T15:03:52;6.53;;;4.90;;
73672;SDS011;61972;19.480;-99.240;2023-05-10T15:06:22;5.85;;;4.35;;
73672;SDS011;61972;19.480;-99.240;2023-05-10T15:08:52;5.82;;;4.13;;
73672;SDS011;61972;19.480;-99.240;2023-05-10T15:11:18;6.57;;;4.57;;
73672;SDS011;61972;19.480;-99.240;2023-05-10T15:13:45;6.97;;;5.15;;
73672;SDS011;61972;19.480;-99.240;2023-05-10T15:16:11;6.60;;;4.63;;
73672;SDS011;61972;19.480;-99.240;2023-05-10T15:18:37;6.68;;;4.78;;
73672;SDS011;61972;19.480;-99.240;2023-05-10T15:21:04;6.60;;;4.97;;
73672;SDS011;61972;19.480;-99.240;2023-05-10T15:23:30;6.40;;;4.55;;
73672;SDS011;61972;19.480;-99.240;2023-05-10T15:25:57;6.75;;;4.88;;
73672;SDS011;61972;19.480;-99.240;2023-05-10T15:28:23;6.93;;;5.47;;
73672;SDS011;61972;19.480;-99.240;2023-05-10T15:30:49;6.53;;;4.55;;
73672;SDS011;61972;19.480;-99.240;2023-05-10T15:33:16;6.70;;;4.70;;
73672;SDS011;61972;19.480;-99.240;2023-05-10T15:35:42;6.60;;;4.70;;
73672;SDS011;61972;19.480;-99.240;2023-05-10T15:38:09;9.52;;;4.78;;
73672;SDS011;61972;19.480;-99.240;2023-05-10T15:40:35;6.83;;;4.23;;
73672;SDS011;61972;19.480;-99.240;2023-05-10T15:43:01;6.53;;;4.80;;
73672;SDS011;61972;19.480;-99.240;2023-05-10T15:45:27;6.70;;;4.47;;
73672;SDS011;61972;19.480;-99.240;2023-05-10T15:47:54;6.75;;;4.68;;
73672;SDS011;61972;19.480;-99.240;2023-05-10T15:50:20;6.20;;;4.43;;
73672;SDS011;61972;19.480;-99.240;2023-05-10T15:52:46;6.10;;;4.30;;
73672;SDS011;61972;19.480;-99.240;2023-05-10T15:55:13;6.28;;;4.50;;
73672;SDS011;61972;19.480;-99.240;2023-05-10T15:57:40;6.00;;;4.53;;
73672;SDS011;61972;19.480;-99.240;2023-05-10T16:00:10;7.97;;;4.38;;
73672;SDS011;61972;19.480;-99.240;2023-05-10T16:02:38;6.55;;;4.70;;
73672;SDS011;61972;19.480;-99.240;2023-05-10T16:05:04;5.97;;;4.47;;
73672;SDS011;61972;19.480;-99.240;2023-05-10T16:07:32;5.47;;;4.20;;
73672;SDS011;61972;19.480;-99.240;2023-05-10T16:09:58;6.15;;;4.63;;
73672;SDS011;61972;19.480;-99.240;2023-05-10T16:12:29;6.25;;;4.55;;
73672;SDS011;61972;19.480;-99.240;2023-05-10T16:14:55;6.10;;;4.47;;
73672;SDS011;61972;19.480;-99.240;2023-05-10T16:17:22;6.63;;;4.67;;
73672;SDS011;61972;19.480;-99.240;2023-05-10T16:19:48;5.80;;;4.30;;
73672;SDS011;61972;19.480;-99.240;2023-05-10T16:22:14;6.05;;;4.40;;
73672;SDS011;61972;19.480;-99.240;2023-05-10T16:24:40;5.90;;;4.60;;
73672;SDS011;61972;19.480;-99.240;2023-05-10T16:27:06;6.10;;;4.70;;
73672;SDS011;61972;19.480;-99.240;2023-05-10T16:29:32;7.10;;;4.87;;
73672;SDS011;61972;19.480;-99.240;2023-05-10T16:31:59;6.10;;;4.47;;
73672;SDS011;61972;19.480;-99.240;2023-05-10T16:34:25;6.25;;;4.30;;
73672;SDS011;61972;19.480;-99.240;2023-05-10T16:36:52;6.78;;;4.63;;
73672;SDS011;61972;19.480;-99.240;2023-05-10T16:39:18;6.25;;;4.47;;
73672;SDS011;61972;19.480;-99.240;2023-05-10T16:41:44;5.53;;;4.00;;